sensor_id;sensor_type;location;lat;lon;timestamp;P1;durP1;ratioP1;P2;durP2;ratioP2
3589;SDS011;1809;48.470;9.226;2023-09-18T00:00:47;4.93;;;4.47;;
3589;SDS011;1809;48.470;9.226;2023-09-18T00:03:16;4.50;;;4.20;;
3589;SDS011;1809;48.470;9.226;2023-09-18T00:05:48;4.30;;;4.00;;
3589;SDS011;1809;48.470;9.226;2023-09-18T00:08:14;7.27;;;4.97;;
3589;SDS011;1809;48.470;9.226;2023-09-18T00:10:40;5.67;;;3.50;;
3589;SDS011;1809;48.470;9.226;2023-09-18T00:13:06;5.30;;;3.70;;
3589;SDS011;1809;48.470;9.226;2023-09-18T00:15:31;4.53;;;4.13;;
3589;SDS011;1809;48.470;9.226;2023-09-18T00:17:57;3.90;;;3.60;;
3589;SDS011;1809;48.470;9.226;2023-09-18T00:20:22;4.30;;;4.00;;
3589;SDS011;1809;48.470;9.226;2023-09-18T00:22:52;4.50;;;4.17;;
3589;SDS011;1809;48.470;9.226;2023-09-18T00:25:18;5.80;;;4.27;;
3589;SDS011;1809;48.470;9.226;2023-09-18T00:27:44;5.70;;;4.47;;
3589;SDS011;1809;48.470;9.226;2023-09-18T00:30:09;4.80;;;4.43;;
3589;SDS011;1809;48.470;9.226;2023-09-18T00:32:36;6.43;;;4.10;;
3589;SDS011;1809;48.470;9.226;2023-09-18T00:35:01;6.50;;;4.20;;
3589;SDS011;1809;48.470;9.226;2023-09-18T00:37:28;4.70;;;4.27;;
3589;SDS011;1809;48.470;9.226;2023-09-18T00:39:53;4.53;;;4.00;;
3589;SDS011;1809;48.470;9.226;2023-09-18T00:42:19;9.43;;;4.20;;
3589;SDS011;1809;48.470;9.226;2023-09-18T00:44:44;6.10;;;4.10;;
3589;SDS011;1809;48.470;9.226;2023-09-18T00:47:10;3.90;;;3.60;;
3589;SDS011;1809;48.470;9.226;2023-09-18T00:49:38;3.57;;;3.37;;
3589;SDS011;1809;48.470;9.226;2023-09-18T00:52:05;4.40;;;4.10;;
3589;SDS011;1809;48.470;9.226;2023-09-18T00:54:32;4.30;;;3.90;;
3589;SDS011;1809;48.470;9.226;2023-09-18T00:56:59;6.20;;;4.30;;
3589;SDS011;1809;48.470;9.226;2023-09-18T00:59:25;8.80;;;4.07;;
3589;SDS011;1809;48.470;9.226;2023-09-18T01:01:50;6.20;;;3.17;;
3589;SDS011;1809;48.470;9.226;2023-09-18T01:04:17;4.53;;;3.70;;
3589;SDS011;1809;48.470;9.226;2023-09-18T01:06:43;3.30;;;2.97;;
3589;SDS011;1809;48.470;9.226;2023-09-18T01:09:08;4.53;;;3.83;;
3589;SDS011;1809;48.470;9.226;2023-09-18T01:14:40;6.93;;;4.17;;
3589;SDS011;1809;48.470;9.226;2023-09-18T01:17:14;4.00;;;3.70;;
3589;SDS011;1809;48.470;9.226;2023-09-18T01:19:45;5.73;;;3.47;;
3589;SDS011;1809;48.470;9.226;2023-09-18T01:22:15;3.73;;;3.43;;
3589;SDS011;1809;48.470;9.226;2023-09-18T01:24:42;6.57;;;4.00;;
3589;SDS011;1809;48.470;9.226;2023-09-18T01:27:09;5.73;;;4.30;;
3589;SDS011;1809;48.470;9.226;2023-09-18T01:29:39;5.50;;;3.30;;
3589;SDS011;1809;48.470;9.226;2023-09-18T01:32:04;3.30;;;3.00;;
3589;SDS011;1809;48.470;9.226;2023-09-18T01:34:37;6.00;;;3.83;;
3589;SDS011;1809;48.470;9.226;2023-09-18T01:37:09;4.90;;;3.20;;
3589;SDS011;1809;48.470;9.226;2023-09-18T01:39:35;6.27;;;3.60;;
3589;SDS011;1809;48.470;9.226;2023-09-18T01:42:02;4.83;;;3.23;;
3589;SDS011;1809;48.470;9.226;2023-09-18T01:44:30;4.30;;;3.30;;
3589;SDS011;1809;48.470;9.226;2023-09-18T01:47:01;5.10;;;3.70;;
3589;SDS011;1809;48.470;9.226;2023-09-18T01:49:32;9.07;;;4.60;;
3589;SDS011;1809;48.470;9.226;2023-09-18T01:51:59;4.93;;;3.97;;
3589;SDS011;1809;48.470;9.226;2023-09-18T01:54:25;3.90;;;3.60;;
3589;SDS011;1809;48.470;9.226;2023-09-18T01:56:51;6.70;;;4.27;;
3589;SDS011;1809;48.470;9.226;2023-09-18T01:59:18;4.37;;;3.77;;
3589;SDS011;1809;48.470;9.226;2023-09-18T02:01:44;7.83;;;4.43;;
3589;SDS011;1809;48.470;9.226;2023-09-18T02:04:09;4.13;;;3.70;;
3589;SDS011;1809;48.470;9.226;2023-09-18T02:06:35;4.23;;;3.90;;
3589;SDS011;1809;48.470;9.226;2023-09-18T02:09:00;5.53;;;4.47;;
3589;SDS011;1809;48.470;9.226;2023-09-18T02:11:26;4.67;;;4.10;;
3589;SDS011;1809;48.470;9.226;2023-09-18T02:13:52;5.73;;;3.53;;
3589;SDS011;1809;48.470;9.226;2023-09-18T02:16:17;3.73;;;3.53;;
3589;SDS011;1809;48.470;9.226;2023-09-18T02:18:44;4.00;;;3.70;;
3589;SDS011;1809;48.470;9.226;2023-09-18T02:21:09;4.00;;;3.70;;
3589;SDS011;1809;48.470;9.226;2023-09-18T02:23:34;5.80;;;4.10;;
3589;SDS011;1809;48.470;9.226;2023-09-18T02:26:00;5.70;;;4.13;;
3589;SDS011;1809;48.470;9.226;2023-09-18T02:28:25;4.50;;;4.10;;
3589;SDS011;1809;48.470;9.226;2023-09-18T02:30:51;6.80;;;3.90;;
3589;SDS011;1809;48.470;9.226;2023-09-18T02:33:16;4.20;;;3.90;;
3589;SDS011;1809;48.470;9.226;2023-09-18T02:35:41;5.03;;;4.63;;
3589;SDS011;1809;48.470;9.226;2023-09-18T02:38:08;4.60;;;4.17;;
3589;SDS011;1809;48.470;9.226;2023-09-18T02:40:34;3.83;;;3.53;;
3589;SDS011;1809;48.470;9.226;2023-09-18T02:42:59;4.60;;;3.50;;
3589;SDS011;1809;48.470;9.226;2023-09-18T02:45:26;5.27;;;4.07;;
3589;SDS011;1809;48.470;9.226;2023-09-18T02:47:51;3.80;;;3.50;;
3589;SDS011;1809;48.470;9.226;2023-09-18T02:50:16;10.23;;;4.03;;
3589;SDS011;1809;48.470;9.226;2023-09-18T02:52:41;14.03;;;3.90;;
3589;SDS011;1809;48.470;9.226;2023-09-18T02:55:07;10.93;;;4.03;;
3589;SDS011;1809;48.470;9.226;2023-09-18T02:57:34;5.20;;;4.33;;
3589;SDS011;1809;48.470;9.226;2023-09-18T03:00:00;5.27;;;3.97;;
3589;SDS011;1809;48.470;9.226;2023-09-18T03:02:25;4.30;;;3.20;;
3589;SDS011;1809;48.470;9.226;2023-09-18T03:04:50;4.10;;;3.33;;
3589;SDS011;1809;48.470;9.226;2023-09-18T03:07:15;10.10;;;3.93;;
3589;SDS011;1809;48.470;9.226;2023-09-18T03:09:41;4.50;;;3.37;;
3589;SDS011;1809;48.470;9.226;2023-09-18T03:12:06;5.33;;;3.30;;
3589;SDS011;1809;48.470;9.226;2023-09-18T03:14:32;4.70;;;3.30;;
3589;SDS011;1809;48.470;9.226;2023-09-18T03:16:57;5.33;;;4.17;;
3589;SDS011;1809;48.470;9.226;2023-09-18T03:19:22;5.23;;;3.70;;
3589;SDS011;1809;48.470;9.226;2023-09-18T03:21:49;14.33;;;3.87;;
3589;SDS011;1809;48.470;9.226;2023-09-18T03:24:15;8.80;;;4.00;;
3589;SDS011;1809;48.470;9.226;2023-09-18T03:26:40;5.47;;;3.50;;
3589;SDS011;1809;48.470;9.226;2023-09-18T03:29:05;4.47;;;3.83;;
3589;SDS011;1809;48.470;9.226;2023-09-18T03:31:30;9.53;;;3.70;;
3589;SDS011;1809;48.470;9.226;2023-09-18T03:33:56;13.40;;;4.90;;
3589;SDS011;1809;48.470;9.226;2023-09-18T03:36:22;5.40;;;2.80;;
3589;SDS011;1809;48.470;9.226;2023-09-18T03:38:50;6.83;;;4.07;;
3589;SDS011;1809;48.470;9.226;2023-09-18T03:41:15;10.17;;;3.87;;
3589;SDS011;1809;48.470;9.226;2023-09-18T03:43:41;4.80;;;4.20;;
3589;SDS011;1809;48.470;9.226;2023-09-18T03:46:06;4.97;;;3.40;;
3589;SDS011;1809;48.470;9.226;2023-09-18T03:48:32;6.33;;;3.70;;
3589;SDS011;1809;48.470;9.226;2023-09-18T03:51:03;4.50;;;3.23;;
3589;SDS011;1809;48.470;9.226;2023-09-18T03:53:29;11.47;;;4.03;;
3589;SDS011;1809;48.470;9.226;2023-09-18T03:55:54;4.73;;;4.10;;
3589;SDS011;1809;48.470;9.226;2023-09-18T03:58:20;7.97;;;3.43;;
3589;SDS011;1809;48.470;9.226;2023-09-18T04:00:45;5.03;;;4.30;;
3589;SDS011;1809;48.470;9.226;2023-09-18T04:03:10;5.80;;;2.80;;
3589;SDS011;1809;48.470;9.226;2023-09-18T04:05:36;4.97;;;3.10;;
3589;SDS011;1809;48.470;9.226;2023-09-18T04:08:01;19.10;;;4.50;;
3589;SDS011;1809;48.470;9.226;2023-09-18T04:10:27;17.83;;;3.63;;
3589;SDS011;1809;48.470;9.226;2023-09-18T04:12:52;11.17;;;3.10;;
3589;SDS011;1809;48.470;9.226;2023-09-18T04:15:18;8.47;;;3.03;;
3589;SDS011;1809;48.470;9.226;2023-09-18T04:17:44;14.13;;;3.77;;
3589;SDS011;1809;48.470;9.226;2023-09-18T04:20:10;6.57;;;3.10;;
3589;SDS011;1809;48.470;9.226;2023-09-18T04:22:35;9.70;;;3.20;;
3589;SDS011;1809;48.470;9.226;2023-09-18T04:25:01;8.40;;;3.50;;
3589;SDS011;1809;48.470;9.226;2023-09-18T04:27:30;10.93;;;3.50;;
3589;SDS011;1809;48.470;9.226;2023-09-18T04:29:55;14.60;;;3.97;;
3589;SDS011;1809;48.470;9.226;2023-09-18T04:32:21;8.30;;;3.30;;
3589;SDS011;1809;48.470;9.226;2023-09-18T04:34:46;9.63;;;4.77;;
3589;SDS011;1809;48.470;9.226;2023-09-18T04:37:12;8.33;;;3.43;;
3589;SDS011;1809;48.470;9.226;2023-09-18T04:39:37;7.10;;;3.30;;
3589;SDS011;1809;48.470;9.226;2023-09-18T04:42:02;7.63;;;3.40;;
3589;SDS011;1809;48.470;9.226;2023-09-18T04:44:31;11.73;;;3.10;;
3589;SDS011;1809;48.470;9.226;2023-09-18T04:46:56;14.90;;;3.40;;
3589;SDS011;1809;48.470;9.226;2023-09-18T04:49:22;15.17;;;3.70;;
3589;SDS011;1809;48.470;9.226;2023-09-18T04:51:48;13.17;;;4.10;;
3589;SDS011;1809;48.470;9.226;2023-09-18T04:54:14;10.80;;;4.40;;
3589;SDS011;1809;48.470;9.226;2023-09-18T04:56:40;9.87;;;3.10;;
3589;SDS011;1809;48.470;9.226;2023-09-18T04:59:06;14.23;;;4.53;;
3589;SDS011;1809;48.470;9.226;2023-09-18T05:01:31;7.33;;;4.03;;
3589;SDS011;1809;48.470;9.226;2023-09-18T05:03:57;8.63;;;3.90;;
3589;SDS011;1809;48.470;9.226;2023-09-18T05:06:22;8.83;;;2.90;;
3589;SDS011;1809;48.470;9.226;2023-09-18T05:08:48;11.47;;;4.10;;
3589;SDS011;1809;48.470;9.226;2023-09-18T05:11:13;11.20;;;3.07;;
3589;SDS011;1809;48.470;9.226;2023-09-18T05:13:38;6.43;;;2.80;;
3589;SDS011;1809;48.470;9.226;2023-09-18T05:16:04;20.70;;;3.50;;
3589;SDS011;1809;48.470;9.226;2023-09-18T05:18:29;18.37;;;4.33;;
3589;SDS011;1809;48.470;9.226;2023-09-18T05:20:55;9.97;;;3.77;;
3589;SDS011;1809;48.470;9.226;2023-09-18T05:23:20;8.93;;;3.50;;
3589;SDS011;1809;48.470;9.226;2023-09-18T05:25:46;14.97;;;3.40;;
3589;SDS011;1809;48.470;9.226;2023-09-18T05:28:11;12.47;;;3.90;;
3589;SDS011;1809;48.470;9.226;2023-09-18T05:30:36;14.47;;;3.73;;
3589;SDS011;1809;48.470;9.226;2023-09-18T05:33:05;12.90;;;3.63;;
3589;SDS011;1809;48.470;9.226;2023-09-18T05:38:05;7.00;;;3.67;;
3589;SDS011;1809;48.470;9.226;2023-09-18T05:40:31;20.90;;;3.43;;
3589;SDS011;1809;48.470;9.226;2023-09-18T05:42:57;11.67;;;3.00;;
3589;SDS011;1809;48.470;9.226;2023-09-18T05:45:23;9.30;;;3.17;;
3589;SDS011;1809;48.470;9.226;2023-09-18T05:47:49;5.53;;;3.13;;
3589;SDS011;1809;48.470;9.226;2023-09-18T05:50:15;8.37;;;3.33;;
3589;SDS011;1809;48.470;9.226;2023-09-18T05:52:44;10.33;;;2.87;;
3589;SDS011;1809;48.470;9.226;2023-09-18T05:55:11;3.53;;;2.80;;
3589;SDS011;1809;48.470;9.226;2023-09-18T05:57:37;9.80;;;4.00;;
3589;SDS011;1809;48.470;9.226;2023-09-18T06:00:03;9.30;;;4.00;;
3589;SDS011;1809;48.470;9.226;2023-09-18T06:02:30;15.67;;;5.53;;
3589;SDS011;1809;48.470;9.226;2023-09-18T06:04:55;13.27;;;7.20;;
3589;SDS011;1809;48.470;9.226;2023-09-18T06:07:22;11.73;;;4.43;;
3589;SDS011;1809;48.470;9.226;2023-09-18T06:09:52;7.70;;;3.60;;
3589;SDS011;1809;48.470;9.226;2023-09-18T06:12:17;11.47;;;3.13;;
3589;SDS011;1809;48.470;9.226;2023-09-18T06:14:42;18.90;;;3.53;;
3589;SDS011;1809;48.470;9.226;2023-09-18T06:17:08;6.57;;;3.07;;
3589;SDS011;1809;48.470;9.226;2023-09-18T06:19:34;13.50;;;3.63;;
3589;SDS011;1809;48.470;9.226;2023-09-18T06:22:00;12.63;;;4.00;;
3589;SDS011;1809;48.470;9.226;2023-09-18T06:24:25;13.30;;;3.30;;
3589;SDS011;1809;48.470;9.226;2023-09-18T06:26:50;13.20;;;3.17;;
3589;SDS011;1809;48.470;9.226;2023-09-18T06:29:16;6.30;;;3.77;;
3589;SDS011;1809;48.470;9.226;2023-09-18T06:31:41;12.17;;;3.37;;
3589;SDS011;1809;48.470;9.226;2023-09-18T06:34:06;13.40;;;3.70;;
3589;SDS011;1809;48.470;9.226;2023-09-18T06:36:33;9.20;;;3.40;;
3589;SDS011;1809;48.470;9.226;2023-09-18T06:38:58;13.63;;;3.37;;
3589;SDS011;1809;48.470;9.226;2023-09-18T06:41:23;5.80;;;2.87;;
3589;SDS011;1809;48.470;9.226;2023-09-18T06:43:49;16.13;;;3.50;;
3589;SDS011;1809;48.470;9.226;2023-09-18T06:46:14;10.67;;;3.73;;
3589;SDS011;1809;48.470;9.226;2023-09-18T06:48:39;14.57;;;3.37;;
3589;SDS011;1809;48.470;9.226;2023-09-18T06:51:04;12.20;;;3.60;;
3589;SDS011;1809;48.470;9.226;2023-09-18T06:53:31;10.33;;;3.93;;
3589;SDS011;1809;48.470;9.226;2023-09-18T06:55:56;5.33;;;3.17;;
3589;SDS011;1809;48.470;9.226;2023-09-18T06:58:22;9.00;;;2.87;;
3589;SDS011;1809;48.470;9.226;2023-09-18T07:00:47;5.27;;;2.37;;
3589;SDS011;1809;48.470;9.226;2023-09-18T07:03:15;5.43;;;2.40;;
3589;SDS011;1809;48.470;9.226;2023-09-18T07:05:41;10.63;;;2.20;;
3589;SDS011;1809;48.470;9.226;2023-09-18T07:08:08;6.20;;;1.93;;
3589;SDS011;1809;48.470;9.226;2023-09-18T07:10:36;3.23;;;2.10;;
3589;SDS011;1809;48.470;9.226;2023-09-18T07:13:02;9.40;;;3.30;;
3589;SDS011;1809;48.470;9.226;2023-09-18T07:15:28;11.50;;;3.03;;
3589;SDS011;1809;48.470;9.226;2023-09-18T07:17:53;4.90;;;3.20;;
3589;SDS011;1809;48.470;9.226;2023-09-18T07:20:18;10.33;;;3.70;;
3589;SDS011;1809;48.470;9.226;2023-09-18T07:22:46;7.43;;;3.57;;
3589;SDS011;1809;48.470;9.226;2023-09-18T07:25:12;15.30;;;3.47;;
3589;SDS011;1809;48.470;9.226;2023-09-18T07:27:38;10.43;;;4.00;;
3589;SDS011;1809;48.470;9.226;2023-09-18T07:30:09;7.40;;;2.90;;
3589;SDS011;1809;48.470;9.226;2023-09-18T07:32:41;3.90;;;1.77;;
3589;SDS011;1809;48.470;9.226;2023-09-18T07:35:07;6.40;;;2.37;;
3589;SDS011;1809;48.470;9.226;2023-09-18T07:37:33;5.03;;;2.10;;
3589;SDS011;1809;48.470;9.226;2023-09-18T07:40:00;7.30;;;2.60;;
3589;SDS011;1809;48.470;9.226;2023-09-18T07:42:25;4.40;;;1.70;;
3589;SDS011;1809;48.470;9.226;2023-09-18T07:44:52;11.40;;;2.70;;
3589;SDS011;1809;48.470;9.226;2023-09-18T07:47:17;4.57;;;2.80;;
3589;SDS011;1809;48.470;9.226;2023-09-18T07:49:44;10.60;;;2.77;;
3589;SDS011;1809;48.470;9.226;2023-09-18T07:52:09;6.67;;;2.20;;
3589;SDS011;1809;48.470;9.226;2023-09-18T07:54:34;3.50;;;1.67;;
3589;SDS011;1809;48.470;9.226;2023-09-18T07:57:00;6.13;;;1.97;;
3589;SDS011;1809;48.470;9.226;2023-09-18T07:59:26;5.03;;;1.77;;
3589;SDS011;1809;48.470;9.226;2023-09-18T08:01:51;7.40;;;1.93;;
3589;SDS011;1809;48.470;9.226;2023-09-18T08:04:17;3.80;;;1.77;;
3589;SDS011;1809;48.470;9.226;2023-09-18T08:06:42;3.87;;;1.50;;
3589;SDS011;1809;48.470;9.226;2023-09-18T08:09:07;15.50;;;1.70;;
3589;SDS011;1809;48.470;9.226;2023-09-18T08:11:35;6.30;;;2.77;;
3589;SDS011;1809;48.470;9.226;2023-09-18T08:14:01;6.20;;;2.03;;
3589;SDS011;1809;48.470;9.226;2023-09-18T08:16:28;3.93;;;1.57;;
3589;SDS011;1809;48.470;9.226;2023-09-18T08:18:54;3.30;;;1.33;;
3589;SDS011;1809;48.470;9.226;2023-09-18T08:21:21;7.80;;;1.57;;
3589;SDS011;1809;48.470;9.226;2023-09-18T08:23:48;3.23;;;1.50;;
3589;SDS011;1809;48.470;9.226;2023-09-18T08:26:13;2.10;;;1.83;;
3589;SDS011;1809;48.470;9.226;2023-09-18T08:28:38;3.20;;;1.60;;
3589;SDS011;1809;48.470;9.226;2023-09-18T08:31:08;1.80;;;1.30;;
3589;SDS011;1809;48.470;9.226;2023-09-18T08:33:34;5.07;;;1.47;;
3589;SDS011;1809;48.470;9.226;2023-09-18T08:36:01;1.90;;;1.20;;
3589;SDS011;1809;48.470;9.226;2023-09-18T08:38:26;3.77;;;1.50;;
3589;SDS011;1809;48.470;9.226;2023-09-18T08:40:53;4.13;;;1.23;;
3589;SDS011;1809;48.470;9.226;2023-09-18T08:43:19;4.83;;;1.70;;
3589;SDS011;1809;48.470;9.226;2023-09-18T08:45:47;3.07;;;1.50;;
3589;SDS011;1809;48.470;9.226;2023-09-18T08:48:15;6.70;;;2.40;;
3589;SDS011;1809;48.470;9.226;2023-09-18T08:50:41;2.70;;;1.67;;
3589;SDS011;1809;48.470;9.226;2023-09-18T08:53:07;1.90;;;1.73;;
3589;SDS011;1809;48.470;9.226;2023-09-18T08:55:33;2.67;;;1.10;;
3589;SDS011;1809;48.470;9.226;2023-09-18T08:57:59;12.67;;;1.90;;
3589;SDS011;1809;48.470;9.226;2023-09-18T09:00:25;7.07;;;1.30;;
3589;SDS011;1809;48.470;9.226;2023-09-18T09:02:51;6.33;;;1.63;;
3589;SDS011;1809;48.470;9.226;2023-09-18T09:05:19;4.70;;;1.40;;
3589;SDS011;1809;48.470;9.226;2023-09-18T09:07:45;4.10;;;1.40;;
3589;SDS011;1809;48.470;9.226;2023-09-18T09:10:11;2.50;;;1.40;;
3589;SDS011;1809;48.470;9.226;2023-09-18T09:15:21;1.40;;;1.23;;
3589;SDS011;1809;48.470;9.226;2023-09-18T09:17:48;1.60;;;1.50;;
3589;SDS011;1809;48.470;9.226;2023-09-18T09:20:14;3.13;;;1.13;;
3589;SDS011;1809;48.470;9.226;2023-09-18T09:22:40;1.67;;;1.20;;
3589;SDS011;1809;48.470;9.226;2023-09-18T09:25:28;3.20;;;1.40;;
3589;SDS011;1809;48.470;9.226;2023-09-18T09:27:56;2.50;;;1.43;;
3589;SDS011;1809;48.470;9.226;2023-09-18T09:30:23;2.60;;;1.17;;
3589;SDS011;1809;48.470;9.226;2023-09-18T09:32:50;1.50;;;1.40;;
3589;SDS011;1809;48.470;9.226;2023-09-18T09:35:23;1.43;;;1.10;;
3589;SDS011;1809;48.470;9.226;2023-09-18T09:38:08;1.40;;;1.30;;
3589;SDS011;1809;48.470;9.226;2023-09-18T09:40:34;1.43;;;1.30;;
3589;SDS011;1809;48.470;9.226;2023-09-18T09:43:03;4.20;;;1.20;;
3589;SDS011;1809;48.470;9.226;2023-09-18T09:45:29;1.50;;;1.40;;
3589;SDS011;1809;48.470;9.226;2023-09-18T09:48:00;2.60;;;1.20;;
3589;SDS011;1809;48.470;9.226;2023-09-18T09:50:26;4.10;;;1.43;;
3589;SDS011;1809;48.470;9.226;2023-09-18T09:52:52;1.60;;;1.43;;
3589;SDS011;1809;48.470;9.226;2023-09-18T09:55:20;13.00;;;1.50;;
3589;SDS011;1809;48.470;9.226;2023-09-18T09:57:47;1.20;;;1.10;;
3589;SDS011;1809;48.470;9.226;2023-09-18T10:00:13;2.47;;;1.07;;
3589;SDS011;1809;48.470;9.226;2023-09-18T10:02:57;1.70;;;1.60;;
3589;SDS011;1809;48.470;9.226;2023-09-18T10:05:31;2.13;;;1.10;;
3589;SDS011;1809;48.470;9.226;2023-09-18T10:08:02;1.10;;;1.00;;
3589;SDS011;1809;48.470;9.226;2023-09-18T10:10:32;2.20;;;1.20;;
3589;SDS011;1809;48.470;9.226;2023-09-18T10:13:07;2.30;;;1.10;;
3589;SDS011;1809;48.470;9.226;2023-09-18T10:15:40;2.70;;;1.03;;
3589;SDS011;1809;48.470;9.226;2023-09-18T10:18:10;1.73;;;1.10;;
3589;SDS011;1809;48.470;9.226;2023-09-18T10:20:47;12.47;;;1.30;;
3589;SDS011;1809;48.470;9.226;2023-09-18T10:23:20;1.13;;;0.90;;
3589;SDS011;1809;48.470;9.226;2023-09-18T10:25:53;2.20;;;0.80;;
3589;SDS011;1809;48.470;9.226;2023-09-18T10:28:24;4.60;;;0.80;;
3589;SDS011;1809;48.470;9.226;2023-09-18T10:30:52;4.63;;;1.13;;
3589;SDS011;1809;48.470;9.226;2023-09-18T10:33:21;5.07;;;1.30;;
3589;SDS011;1809;48.470;9.226;2023-09-18T10:35:46;1.93;;;1.20;;
3589;SDS011;1809;48.470;9.226;2023-09-18T10:38:13;2.27;;;1.20;;
3589;SDS011;1809;48.470;9.226;2023-09-18T10:40:40;5.77;;;1.07;;
3589;SDS011;1809;48.470;9.226;2023-09-18T10:43:06;2.27;;;1.20;;
3589;SDS011;1809;48.470;9.226;2023-09-18T10:45:35;1.93;;;0.93;;
3589;SDS011;1809;48.470;9.226;2023-09-18T10:48:01;2.67;;;1.10;;
3589;SDS011;1809;48.470;9.226;2023-09-18T10:50:28;3.13;;;1.10;;
3589;SDS011;1809;48.470;9.226;2023-09-18T10:52:56;1.83;;;1.30;;
3589;SDS011;1809;48.470;9.226;2023-09-18T10:55:22;1.57;;;1.20;;
3589;SDS011;1809;48.470;9.226;2023-09-18T10:57:59;1.47;;;1.20;;
3589;SDS011;1809;48.470;9.226;2023-09-18T11:00:25;2.20;;;1.30;;
3589;SDS011;1809;48.470;9.226;2023-09-18T11:02:52;1.20;;;1.10;;
3589;SDS011;1809;48.470;9.226;2023-09-18T11:05:30;1.37;;;1.10;;
3589;SDS011;1809;48.470;9.226;2023-09-18T11:11:08;5.17;;;2.47;;
3589;SDS011;1809;48.470;9.226;2023-09-18T11:13:38;3.63;;;1.27;;
3589;SDS011;1809;48.470;9.226;2023-09-18T11:18:40;7.07;;;2.30;;
3589;SDS011;1809;48.470;9.226;2023-09-18T11:21:12;2.20;;;1.47;;
3589;SDS011;1809;48.470;9.226;2023-09-18T11:23:40;3.57;;;1.30;;
3589;SDS011;1809;48.470;9.226;2023-09-18T11:26:08;4.20;;;1.50;;
3589;SDS011;1809;48.470;9.226;2023-09-18T11:28:34;2.40;;;1.53;;
3589;SDS011;1809;48.470;9.226;2023-09-18T11:31:02;5.53;;;1.50;;
3589;SDS011;1809;48.470;9.226;2023-09-18T11:33:41;1.53;;;1.40;;
3589;SDS011;1809;48.470;9.226;2023-09-18T11:36:14;2.97;;;1.20;;
3589;SDS011;1809;48.470;9.226;2023-09-18T11:38:59;3.13;;;1.33;;
3589;SDS011;1809;48.470;9.226;2023-09-18T11:41:29;6.90;;;1.33;;
3589;SDS011;1809;48.470;9.226;2023-09-18T11:44:31;5.13;;;1.50;;
3589;SDS011;1809;48.470;9.226;2023-09-18T11:46:53;6.20;;;1.30;;
3589;SDS011;1809;48.470;9.226;2023-09-18T11:49:22;1.30;;;1.20;;
3589;SDS011;1809;48.470;9.226;2023-09-18T11:51:51;1.50;;;1.40;;
3589;SDS011;1809;48.470;9.226;2023-09-18T11:54:18;4.43;;;1.50;;
3589;SDS011;1809;48.470;9.226;2023-09-18T11:56:43;3.70;;;1.37;;
3589;SDS011;1809;48.470;9.226;2023-09-18T11:59:09;2.20;;;1.40;;
3589;SDS011;1809;48.470;9.226;2023-09-18T12:01:36;1.43;;;1.30;;
3589;SDS011;1809;48.470;9.226;2023-09-18T12:04:04;3.37;;;1.70;;
3589;SDS011;1809;48.470;9.226;2023-09-18T12:06:39;1.40;;;1.10;;
3589;SDS011;1809;48.470;9.226;2023-09-18T12:09:06;1.73;;;1.60;;
3589;SDS011;1809;48.470;9.226;2023-09-18T12:11:32;2.23;;;1.37;;
3589;SDS011;1809;48.470;9.226;2023-09-18T12:14:00;2.53;;;1.37;;
3589;SDS011;1809;48.470;9.226;2023-09-18T12:16:29;2.83;;;1.93;;
3589;SDS011;1809;48.470;9.226;2023-09-18T12:18:55;1.97;;;1.70;;
3589;SDS011;1809;48.470;9.226;2023-09-18T12:21:21;2.10;;;1.60;;
3589;SDS011;1809;48.470;9.226;2023-09-18T12:23:47;2.17;;;1.63;;
3589;SDS011;1809;48.470;9.226;2023-09-18T12:26:13;2.80;;;1.50;;
3589;SDS011;1809;48.470;9.226;2023-09-18T12:28:43;3.57;;;1.80;;
3589;SDS011;1809;48.470;9.226;2023-09-18T12:31:10;5.13;;;1.60;;
3589;SDS011;1809;48.470;9.226;2023-09-18T12:33:37;2.47;;;1.90;;
3589;SDS011;1809;48.470;9.226;2023-09-18T12:36:04;4.00;;;1.47;;
3589;SDS011;1809;48.470;9.226;2023-09-18T12:38:30;6.50;;;2.00;;
3589;SDS011;1809;48.470;9.226;2023-09-18T12:40:56;2.90;;;1.50;;
3589;SDS011;1809;48.470;9.226;2023-09-18T12:43:31;3.50;;;1.60;;
3589;SDS011;1809;48.470;9.226;2023-09-18T12:46:15;3.07;;;1.50;;
3589;SDS011;1809;48.470;9.226;2023-09-18T12:48:40;1.73;;;1.50;;
3589;SDS011;1809;48.470;9.226;2023-09-18T12:51:12;3.50;;;1.53;;
3589;SDS011;1809;48.470;9.226;2023-09-18T12:53:39;1.43;;;1.20;;
3589;SDS011;1809;48.470;9.226;2023-09-18T12:56:08;1.63;;;1.53;;
3589;SDS011;1809;48.470;9.226;2023-09-18T12:58:34;3.47;;;1.37;;
3589;SDS011;1809;48.470;9.226;2023-09-18T13:01:03;6.47;;;1.90;;
3589;SDS011;1809;48.470;9.226;2023-09-18T13:03:41;2.87;;;1.10;;
3589;SDS011;1809;48.470;9.226;2023-09-18T13:06:08;2.77;;;1.73;;
3589;SDS011;1809;48.470;9.226;2023-09-18T13:08:37;1.40;;;1.30;;
3589;SDS011;1809;48.470;9.226;2023-09-18T13:11:03;1.50;;;1.40;;
3589;SDS011;1809;48.470;9.226;2023-09-18T13:13:29;1.67;;;1.57;;
3589;SDS011;1809;48.470;9.226;2023-09-18T13:15:58;3.83;;;2.17;;
3589;SDS011;1809;48.470;9.226;2023-09-18T13:18:25;2.10;;;1.90;;
3589;SDS011;1809;48.470;9.226;2023-09-18T13:20:52;5.23;;;1.50;;
3589;SDS011;1809;48.470;9.226;2023-09-18T13:23:18;5.60;;;2.30;;
3589;SDS011;1809;48.470;9.226;2023-09-18T13:25:43;2.93;;;2.27;;
3589;SDS011;1809;48.470;9.226;2023-09-18T13:28:11;1.77;;;1.40;;
3589;SDS011;1809;48.470;9.226;2023-09-18T13:30:38;5.60;;;1.40;;
3589;SDS011;1809;48.470;9.226;2023-09-18T13:33:15;2.80;;;1.50;;
3589;SDS011;1809;48.470;9.226;2023-09-18T13:35:42;1.87;;;1.73;;
3589;SDS011;1809;48.470;9.226;2023-09-18T13:38:09;2.80;;;1.53;;
3589;SDS011;1809;48.470;9.226;2023-09-18T13:40:39;1.50;;;1.37;;
3589;SDS011;1809;48.470;9.226;2023-09-18T13:43:06;2.40;;;1.37;;
3589;SDS011;1809;48.470;9.226;2023-09-18T13:45:33;1.43;;;1.33;;
3589;SDS011;1809;48.470;9.226;2023-09-18T13:48:00;4.73;;;1.20;;
3589;SDS011;1809;48.470;9.226;2023-09-18T13:50:25;2.30;;;1.50;;
3589;SDS011;1809;48.470;9.226;2023-09-18T13:52:51;1.83;;;1.50;;
3589;SDS011;1809;48.470;9.226;2023-09-18T13:55:16;2.90;;;1.33;;
3589;SDS011;1809;48.470;9.226;2023-09-18T13:57:42;5.40;;;1.80;;
3589;SDS011;1809;48.470;9.226;2023-09-18T14:00:08;2.30;;;1.60;;
3589;SDS011;1809;48.470;9.226;2023-09-18T14:02:37;2.47;;;1.17;;
3589;SDS011;1809;48.470;9.226;2023-09-18T14:05:03;1.60;;;1.50;;
3589;SDS011;1809;48.470;9.226;2023-09-18T14:07:29;1.30;;;1.20;;
3589;SDS011;1809;48.470;9.226;2023-09-18T14:09:54;1.40;;;1.30;;
3589;SDS011;1809;48.470;9.226;2023-09-18T14:12:20;2.33;;;1.60;;
3589;SDS011;1809;48.470;9.226;2023-09-18T14:14:45;3.37;;;1.40;;
3589;SDS011;1809;48.470;9.226;2023-09-18T14:17:11;2.10;;;1.80;;
3589;SDS011;1809;48.470;9.226;2023-09-18T14:19:37;2.17;;;1.60;;
3589;SDS011;1809;48.470;9.226;2023-09-18T14:22:06;3.93;;;1.47;;
3589;SDS011;1809;48.470;9.226;2023-09-18T14:24:32;1.70;;;1.60;;
3589;SDS011;1809;48.470;9.226;2023-09-18T14:26:59;2.03;;;1.90;;
3589;SDS011;1809;48.470;9.226;2023-09-18T14:29:25;12.37;;;1.87;;
3589;SDS011;1809;48.470;9.226;2023-09-18T14:31:51;1.97;;;1.63;;
3589;SDS011;1809;48.470;9.226;2023-09-18T14:34:17;3.03;;;1.30;;
3589;SDS011;1809;48.470;9.226;2023-09-18T14:36:42;1.13;;;1.13;;
3589;SDS011;1809;48.470;9.226;2023-09-18T14:39:10;2.30;;;1.70;;
3589;SDS011;1809;48.470;9.226;2023-09-18T14:41:36;6.20;;;1.20;;
3589;SDS011;1809;48.470;9.226;2023-09-18T14:44:02;1.93;;;1.10;;
3589;SDS011;1809;48.470;9.226;2023-09-18T14:46:29;4.60;;;1.60;;
3589;SDS011;1809;48.470;9.226;2023-09-18T14:48:58;2.93;;;1.70;;
3589;SDS011;1809;48.470;9.226;2023-09-18T14:51:26;3.07;;;1.50;;
3589;SDS011;1809;48.470;9.226;2023-09-18T14:53:51;4.30;;;1.40;;
3589;SDS011;1809;48.470;9.226;2023-09-18T14:56:17;4.97;;;1.77;;
3589;SDS011;1809;48.470;9.226;2023-09-18T14:58:42;3.00;;;1.40;;
3589;SDS011;1809;48.470;9.226;2023-09-18T15:01:08;8.13;;;2.00;;
3589;SDS011;1809;48.470;9.226;2023-09-18T15:03:35;1.30;;;1.20;;
3589;SDS011;1809;48.470;9.226;2023-09-18T15:06:00;5.77;;;1.33;;
3589;SDS011;1809;48.470;9.226;2023-09-18T15:08:26;2.63;;;1.70;;
3589;SDS011;1809;48.470;9.226;2023-09-18T15:10:52;6.43;;;1.37;;
3589;SDS011;1809;48.470;9.226;2023-09-18T15:13:17;1.70;;;1.60;;
3589;SDS011;1809;48.470;9.226;2023-09-18T15:15:43;3.53;;;1.93;;
3589;SDS011;1809;48.470;9.226;2023-09-18T15:18:09;4.53;;;1.87;;
3589;SDS011;1809;48.470;9.226;2023-09-18T15:20:34;1.60;;;1.43;;
3589;SDS011;1809;48.470;9.226;2023-09-18T15:23:00;2.13;;;1.30;;
3589;SDS011;1809;48.470;9.226;2023-09-18T15:25:25;1.47;;;1.37;;